createdAt,value
2018-09-17T00:02:04.513Z,41.90
2018-09-17T00:04:32.030Z,41.90
2018-09-17T00:06:59.602Z,41.80
2018-09-17T00:09:27.112Z,41.90
2018-09-17T00:11:54.660Z,41.80
2018-09-17T00:14:22.209Z,41.80
2018-09-17T00:16:49.716Z,42.40
2018-09-17T00:19:17.232Z,41.80
2018-09-17T00:21:44.736Z,41.80
2018-09-17T00:24:12.290Z,41.80
2018-09-17T00:26:39.917Z,41.70
2018-09-17T00:29:07.492Z,41.70
2018-09-17T00:31:35.012Z,41.70
2018-09-17T00:34:02.543Z,41.70
2018-09-17T00:36:30.060Z,41.70
2018-09-17T00:38:57.552Z,41.70
2018-09-17T00:41:25.049Z,41.70
2018-09-17T00:43:52.542Z,41.60
2018-09-17T00:46:20.026Z,41.60
2018-09-17T00:48:47.513Z,41.80
2018-09-17T00:51:15.850Z,41.70
2018-09-17T00:53:43.334Z,41.60
2018-09-17T00:56:10.872Z,41.60
2018-09-17T00:58:38.353Z,41.60
2018-09-17T01:01:05.879Z,41.60
2018-09-17T01:03:33.365Z,41.70
2018-09-17T01:06:00.872Z,41.50
2018-09-17T01:08:28.367Z,41.60
2018-09-17T01:10:55.870Z,41.60
2018-09-17T01:13:23.469Z,41.60
2018-09-17T01:15:50.958Z,41.60
2018-09-17T01:18:18.451Z,41.50
2018-09-17T01:20:45.964Z,41.50
2018-09-17T01:23:13.662Z,41.50
2018-09-17T01:25:41.156Z,41.40
2018-09-17T01:28:08.653Z,41.40
2018-09-17T01:30:36.167Z,41.40
2018-09-17T01:33:03.754Z,41.40
2018-09-17T01:35:31.245Z,41.40
2018-09-17T01:37:58.733Z,41.40
2018-09-17T01:40:26.246Z,41.40
2018-09-17T01:42:53.753Z,41.40
2018-09-17T01:45:21.265Z,41.30
2018-09-17T01:47:48.753Z,41.30
2018-09-17T01:50:16.246Z,41.20
2018-09-17T01:52:43.741Z,41.20
2018-09-17T01:55:11.257Z,41.30
2018-09-17T01:57:38.826Z,41.20
2018-09-17T02:00:06.305Z,41.30
2018-09-17T02:02:33.796Z,41.20
2018-09-17T02:05:01.279Z,41.30
2018-09-17T02:07:28.770Z,40.90
2018-09-17T02:09:56.353Z,41.20
2018-09-17T02:12:23.933Z,41.20
2018-09-17T02:14:51.417Z,41.20
2018-09-17T02:17:18.909Z,41.20
2018-09-17T02:19:46.386Z,41.20
2018-09-17T02:22:13.852Z,41.20
2018-09-17T02:24:41.340Z,41.20
2018-09-17T02:27:08.828Z,41.20
2018-09-17T02:29:36.319Z,41.20
2018-09-17T02:32:03.806Z,41.20
2018-09-17T02:34:31.280Z,41.20
2018-09-17T02:36:58.753Z,41.20
2018-09-17T02:39:26.254Z,41.20
2018-09-17T02:41:53.728Z,41.20
2018-09-17T02:44:21.210Z,41.20
2018-09-17T02:46:48.695Z,41.20
2018-09-17T02:49:16.173Z,41.20
2018-09-17T02:51:43.643Z,41.20
2018-09-17T02:54:11.145Z,41.20
2018-09-17T02:56:38.664Z,41.20
2018-09-17T02:59:06.376Z,41.20
2018-09-17T03:01:33.879Z,41.20
2018-09-17T03:04:01.366Z,41.20
2018-09-17T03:06:28.855Z,41.20
2018-09-17T03:08:56.351Z,41.20
2018-09-17T03:11:23.947Z,41.20
2018-09-17T03:13:51.439Z,41.20
2018-09-17T03:16:18.935Z,41.20
2018-09-17T03:18:49.122Z,41.20
2018-09-17T03:21:16.608Z,41.20
2018-09-17T03:23:44.222Z,41.20
2018-09-17T03:26:11.721Z,41.20
2018-09-17T03:28:39.263Z,41.20
2018-09-17T03:31:07.057Z,41.20
2018-09-17T03:33:34.564Z,41.20
2018-09-17T03:36:02.061Z,41.20
2018-09-17T03:38:43.385Z,41.20
2018-09-17T03:41:11.575Z,41.20
2018-09-17T03:43:40.357Z,41.20
2018-09-17T03:46:07.864Z,41.20
2018-09-17T03:48:36.342Z,41.20
2018-09-17T03:51:04.481Z,41.20
2018-09-17T03:53:32.182Z,41.10
2018-09-17T03:55:59.710Z,41.10
2018-09-17T03:58:27.612Z,41.20
2018-09-17T04:00:55.118Z,41.10
2018-09-17T04:03:22.678Z,41.10
2018-09-17T04:05:50.169Z,41.10
2018-09-17T04:08:17.763Z,41.20
2018-09-17T04:10:45.371Z,41.10
2018-09-17T04:13:12.870Z,41.20
2018-09-17T04:15:40.436Z,41.30
2018-09-17T04:18:07.921Z,41.30
2018-09-17T04:20:35.558Z,41.60
2018-09-17T04:23:03.071Z,41.70
2018-09-17T04:25:30.554Z,41.70
2018-09-17T04:27:58.030Z,41.80
2018-09-17T04:30:25.780Z,41.90
2018-09-17T04:32:53.845Z,41.80
2018-09-17T04:35:21.318Z,41.70
2018-09-17T04:37:48.845Z,41.60
2018-09-17T04:40:16.350Z,41.60
2018-09-17T04:42:43.863Z,41.50
2018-09-17T04:45:11.474Z,41.40
2018-09-17T04:47:39.077Z,41.30
2018-09-17T04:50:06.757Z,41.10
2018-09-17T04:52:34.415Z,41.10
2018-09-17T04:55:02.182Z,41.00
2018-09-17T04:57:29.991Z,41.00
2018-09-17T04:59:57.497Z,41.00
2018-09-17T05:02:25.050Z,40.40
2018-09-17T05:04:52.581Z,40.70
2018-09-17T05:07:20.485Z,40.40
2018-09-17T05:09:48.021Z,40.70
2018-09-17T05:12:15.514Z,40.70
2018-09-17T05:14:43.026Z,41.00
2018-09-17T05:17:10.529Z,40.70
2018-09-17T05:19:38.014Z,41.10
2018-09-17T05:22:05.500Z,40.50
2018-09-17T05:24:33.005Z,40.40
2018-09-17T05:27:00.491Z,40.30
2018-09-17T05:29:28.012Z,40.30
2018-09-17T05:31:55.863Z,40.30
2018-09-17T05:34:23.359Z,40.30
2018-09-17T05:36:50.842Z,40.20
2018-09-17T05:39:18.326Z,40.20
2018-09-17T05:41:45.810Z,40.20
2018-09-17T05:44:13.294Z,40.20
2018-09-17T05:46:40.778Z,40.20
2018-09-17T05:49:08.254Z,40.10
2018-09-17T05:51:36.127Z,40.10
2018-09-17T05:54:03.630Z,40.20
2018-09-17T05:56:31.117Z,40.20
2018-09-17T05:58:58.603Z,40.20
2018-09-17T06:01:26.089Z,40.20
2018-09-17T06:03:54.141Z,40.20
2018-09-17T06:06:21.647Z,40.20
2018-09-17T06:08:49.141Z,40.20
2018-09-17T06:11:16.658Z,40.20
2018-09-17T06:13:44.165Z,40.20
2018-09-17T06:16:11.800Z,40.20
2018-09-17T06:18:39.302Z,40.20
2018-09-17T06:21:06.882Z,40.20
2018-09-17T06:23:34.370Z,40.20
2018-09-17T06:26:01.997Z,40.20
2018-09-17T06:28:29.567Z,40.30
2018-09-17T06:30:57.017Z,40.20
2018-09-17T06:33:24.507Z,40.20
2018-09-17T06:35:52.000Z,40.20
2018-09-17T06:38:19.525Z,40.20
2018-09-17T06:40:46.999Z,40.20
2018-09-17T06:43:14.599Z,40.30
2018-09-17T06:45:42.079Z,40.30
2018-09-17T06:48:09.584Z,40.30
2018-09-17T06:50:37.066Z,40.30
2018-09-17T06:53:04.655Z,40.30
2018-09-17T06:55:32.541Z,40.30
2018-09-17T06:58:00.037Z,40.40
2018-09-17T07:00:27.535Z,40.30
2018-09-17T07:02:55.031Z,40.30
2018-09-17T07:05:22.509Z,40.30
2018-09-17T07:07:49.987Z,40.30
2018-09-17T07:10:17.460Z,40.30
2018-09-17T07:12:44.956Z,40.30
2018-09-17T07:15:12.442Z,40.30
2018-09-17T07:17:40.047Z,40.30
2018-09-17T07:20:07.517Z,40.30
2018-09-17T07:22:35.073Z,40.40
2018-09-17T07:25:02.548Z,40.40
2018-09-17T07:27:30.122Z,40.40
2018-09-17T07:29:57.606Z,40.30
2018-09-17T07:32:25.099Z,40.80
2018-09-17T07:34:52.573Z,40.40
2018-09-17T07:37:20.044Z,40.30
2018-09-17T07:39:47.518Z,40.30
2018-09-17T07:42:15.014Z,40.30
2018-09-17T07:44:42.481Z,40.20
2018-09-17T07:47:09.970Z,40.20
2018-09-17T07:49:37.456Z,40.20
2018-09-17T07:52:04.947Z,40.90
2018-09-17T07:54:32.430Z,40.20
2018-09-17T07:57:00.117Z,40.20
2018-09-17T07:59:27.669Z,40.20
2018-09-17T08:01:55.169Z,40.20
2018-09-17T08:04:22.686Z,40.20
2018-09-17T08:06:50.265Z,40.20
2018-09-17T08:09:17.759Z,40.20
2018-09-17T08:11:45.248Z,40.20
2018-09-17T08:14:14.050Z,40.20
2018-09-17T08:16:41.706Z,40.20
2018-09-17T08:19:09.227Z,40.20
2018-09-17T08:21:36.711Z,40.20
2018-09-17T08:24:04.198Z,40.30
2018-09-17T08:26:31.697Z,40.20
2018-09-17T08:28:59.178Z,40.20
2018-09-17T08:31:26.771Z,40.30
2018-09-17T08:33:54.245Z,40.30
2018-09-17T08:36:21.727Z,40.30
2018-09-17T08:38:49.214Z,39.80
2018-09-17T08:41:16.700Z,40.30
2018-09-17T08:43:44.183Z,40.30
2018-09-17T08:46:11.668Z,40.30
2018-09-17T08:48:39.159Z,40.30
2018-09-17T08:51:06.736Z,40.40
2018-09-17T08:53:34.233Z,39.80
2018-09-17T08:56:07.307Z,40.30
2018-09-17T08:58:39.101Z,40.30
2018-09-17T09:01:12.141Z,41.00
2018-09-17T09:03:43.938Z,40.40
2018-09-17T09:06:16.821Z,40.40
2018-09-17T09:08:44.393Z,40.40
2018-09-17T09:11:19.652Z,40.30
2018-09-17T09:13:52.586Z,40.30
2018-09-17T09:16:20.070Z,40.30
2018-09-17T09:18:47.557Z,40.30
2018-09-17T09:21:15.046Z,40.40
2018-09-17T09:23:42.535Z,40.40
2018-09-17T09:26:10.086Z,40.30
2018-09-17T09:28:37.538Z,40.30
2018-09-17T09:31:05.020Z,40.30
2018-09-17T09:33:32.506Z,40.30
2018-09-17T09:35:59.986Z,40.30
2018-09-17T09:38:27.462Z,40.40
2018-09-17T09:40:54.940Z,40.40
2018-09-17T09:43:22.424Z,40.40
2018-09-17T09:45:49.934Z,40.40
2018-09-17T09:48:17.424Z,40.40
2018-09-17T09:50:44.995Z,40.40
2018-09-17T09:53:12.476Z,40.40
2018-09-17T09:55:39.973Z,40.40
2018-09-17T09:58:07.496Z,40.40
2018-09-17T10:00:40.534Z,40.40
2018-09-17T10:03:13.599Z,40.40
2018-09-17T10:05:41.113Z,40.40
2018-09-17T10:08:08.627Z,40.40
2018-09-17T10:10:41.567Z,40.40
2018-09-17T10:13:14.616Z,40.40
2018-09-17T10:15:50.294Z,40.40
2018-09-17T10:18:23.315Z,40.40
2018-09-17T10:20:50.815Z,40.40
2018-09-17T10:23:18.301Z,40.50
2018-09-17T10:25:45.776Z,40.50
2018-09-17T10:28:13.257Z,40.50
2018-09-17T10:30:40.745Z,40.50
2018-09-17T10:33:08.246Z,40.50
2018-09-17T10:35:35.738Z,40.50
2018-09-17T10:38:03.259Z,40.50
2018-09-17T10:40:30.821Z,40.50
2018-09-17T10:42:58.309Z,40.50
2018-09-17T10:45:25.790Z,40.50
2018-09-17T10:47:53.310Z,41.10
2018-09-17T10:50:20.908Z,40.40
2018-09-17T10:52:48.390Z,40.50
2018-09-17T10:55:15.876Z,40.50
2018-09-17T10:57:43.358Z,40.50
2018-09-17T11:00:10.831Z,40.50
2018-09-17T11:02:38.374Z,40.50
2018-09-17T11:05:05.854Z,40.50
2018-09-17T11:07:33.430Z,40.50
2018-09-17T11:10:00.897Z,40.50
2018-09-17T11:12:28.369Z,40.50
2018-09-17T11:14:55.842Z,40.50
2018-09-17T11:17:23.353Z,40.50
2018-09-17T11:19:50.900Z,40.50
2018-09-17T11:22:18.375Z,40.50
2018-09-17T11:24:45.893Z,40.50
2018-09-17T11:27:13.372Z,40.50
2018-09-17T11:29:40.873Z,40.90
2018-09-17T11:32:08.352Z,40.50
2018-09-17T11:34:35.821Z,40.50
2018-09-17T11:37:03.330Z,40.50
2018-09-17T11:39:30.804Z,40.50
2018-09-17T11:41:58.273Z,40.50
2018-09-17T11:44:25.750Z,40.50
2018-09-17T11:46:53.240Z,40.50
2018-09-17T11:49:20.705Z,40.50
2018-09-17T11:51:48.182Z,40.50
2018-09-17T11:54:15.657Z,40.50
2018-09-17T11:56:43.126Z,40.50
2018-09-17T11:59:10.643Z,40.50
2018-09-17T12:01:43.603Z,40.50
2018-09-17T12:04:12.413Z,40.50
2018-09-17T12:06:45.484Z,40.50
2018-09-17T12:09:13.000Z,40.50
2018-09-17T12:11:40.968Z,40.50
2018-09-17T12:14:08.746Z,40.50
2018-09-17T12:16:36.241Z,40.50
2018-09-17T12:19:03.746Z,40.50
2018-09-17T12:21:31.241Z,40.50
2018-09-17T12:23:58.827Z,40.60
2018-09-17T12:26:26.603Z,40.60
2018-09-17T12:28:54.089Z,40.50
2018-09-17T12:31:21.587Z,40.50
2018-09-17T12:33:49.180Z,40.50
2018-09-17T12:36:16.659Z,40.60
2018-09-17T12:38:44.137Z,40.50
2018-09-17T12:41:11.638Z,40.50
2018-09-17T12:43:39.236Z,40.50
2018-09-17T12:46:06.718Z,40.50
2018-09-17T12:48:34.205Z,40.50
2018-09-17T12:51:01.911Z,40.60
2018-09-17T12:53:29.448Z,40.60
2018-09-17T12:55:56.929Z,40.60
2018-09-17T12:58:24.421Z,40.60
2018-09-17T13:00:51.931Z,40.60
2018-09-17T13:03:19.702Z,40.70
2018-09-17T13:05:47.187Z,40.60
2018-09-17T13:08:14.670Z,40.60
2018-09-17T13:10:42.145Z,40.70
2018-09-17T13:13:09.640Z,40.70
2018-09-17T13:15:42.554Z,40.70
2018-09-17T13:18:10.072Z,40.80
2018-09-17T13:20:37.553Z,40.80
2018-09-17T13:23:05.153Z,40.80
2018-09-17T13:25:32.641Z,40.80
2018-09-17T13:28:00.154Z,41.00
2018-09-17T13:30:27.641Z,41.10
2018-09-17T13:32:55.225Z,41.10
2018-09-17T13:35:22.810Z,41.10
2018-09-17T13:37:50.304Z,41.10
2018-09-17T13:40:17.793Z,41.10
2018-09-17T13:42:45.295Z,41.10
2018-09-17T13:45:12.783Z,41.20
2018-09-17T13:47:40.294Z,41.10
2018-09-17T13:50:07.920Z,41.20
2018-09-17T13:52:35.401Z,41.20
2018-09-17T13:55:02.887Z,41.10
2018-09-17T13:57:31.087Z,41.10
2018-09-17T13:59:58.607Z,41.20
2018-09-17T14:02:26.087Z,41.10
2018-09-17T14:04:53.608Z,41.10
2018-09-17T14:07:21.230Z,41.20
2018-09-17T14:09:48.745Z,41.20
2018-09-17T14:12:16.227Z,41.10
2018-09-17T14:14:43.717Z,41.20
2018-09-17T14:17:11.230Z,41.10
2018-09-17T14:19:38.835Z,41.20
2018-09-17T14:22:07.378Z,41.20
2018-09-17T14:24:34.888Z,41.10
2018-09-17T14:27:02.373Z,41.10
2018-09-17T14:29:29.871Z,41.20
2018-09-17T14:32:02.882Z,41.10
2018-09-17T14:34:30.389Z,41.20
2018-09-17T14:36:57.962Z,41.10
2018-09-17T14:39:25.479Z,41.20
2018-09-17T14:41:52.974Z,41.20
2018-09-17T14:44:20.487Z,41.20
2018-09-17T14:46:47.993Z,41.20
2018-09-17T14:49:16.098Z,41.20
2018-09-17T14:51:43.673Z,41.10
2018-09-17T14:54:11.182Z,41.10
2018-09-17T14:56:40.535Z,41.10
2018-09-17T14:59:08.029Z,41.20
2018-09-17T15:01:35.770Z,41.10
2018-09-17T15:04:03.295Z,41.20
2018-09-17T15:06:30.785Z,41.20
2018-09-17T15:08:58.295Z,41.20
2018-09-17T15:11:25.872Z,41.20
2018-09-17T15:13:53.460Z,41.20
2018-09-17T15:16:21.042Z,41.20
2018-09-17T15:18:48.479Z,41.20
2018-09-17T15:21:15.979Z,41.20
2018-09-17T15:23:43.567Z,41.20
2018-09-17T15:26:11.107Z,41.20
2018-09-17T15:28:38.589Z,41.20
2018-09-17T15:31:06.175Z,41.20
2018-09-17T15:33:33.700Z,41.20
2018-09-17T15:36:01.201Z,41.90
2018-09-17T15:38:28.874Z,41.20
2018-09-17T15:40:56.243Z,41.20
2018-09-17T15:43:23.666Z,41.20
2018-09-17T15:45:51.245Z,41.30
2018-09-17T15:48:18.968Z,41.20
2018-09-17T15:50:47.206Z,41.20
2018-09-17T15:53:14.997Z,41.60
2018-09-17T15:55:42.677Z,41.50
2018-09-17T15:58:10.297Z,41.50
2018-09-17T16:00:37.768Z,41.60
2018-09-17T16:03:05.493Z,41.70
2018-09-17T16:05:32.941Z,41.80
2018-09-17T16:08:00.482Z,41.90
2018-09-17T16:10:27.979Z,42.00
2018-09-17T16:12:55.541Z,42.00
2018-09-17T16:15:23.042Z,42.70
2018-09-17T16:17:50.513Z,42.10
2018-09-17T16:20:18.062Z,42.10
2018-09-17T16:22:45.594Z,42.20
2018-09-17T16:25:13.088Z,42.30
2018-09-17T16:27:40.785Z,42.40
2018-09-17T16:30:09.401Z,42.20
2018-09-17T16:32:36.878Z,42.20
2018-09-17T16:35:04.371Z,42.20
2018-09-17T16:37:31.848Z,42.30
2018-09-17T16:39:59.339Z,42.30
2018-09-17T16:42:26.807Z,42.20
2018-09-17T16:44:54.411Z,42.10
2018-09-17T16:47:21.885Z,42.10
2018-09-17T16:49:49.367Z,42.20
2018-09-17T16:52:16.826Z,42.20
2018-09-17T16:54:44.310Z,42.20
2018-09-17T17:02:57.217Z,42.40
2018-09-17T17:05:24.716Z,42.50
2018-09-17T17:07:52.269Z,42.50
2018-09-17T17:10:19.872Z,42.50
2018-09-17T17:12:47.278Z,42.60
2018-09-17T17:15:15.508Z,42.70
2018-09-17T17:17:43.917Z,42.70
2018-09-17T17:20:11.473Z,42.70
2018-09-17T17:22:38.962Z,42.70
2018-09-17T17:25:06.675Z,42.70
2018-09-17T17:27:34.163Z,42.70
2018-09-17T17:30:02.560Z,42.80
2018-09-17T17:32:30.241Z,42.80
2018-09-17T17:34:57.869Z,42.90
2018-09-17T17:37:25.370Z,43.00
2018-09-17T17:39:53.059Z,43.00
2018-09-17T17:42:20.408Z,43.00
2018-09-17T17:44:48.573Z,43.00
2018-09-17T17:47:16.458Z,43.00
2018-09-17T17:49:43.950Z,43.00
2018-09-17T17:52:12.432Z,43.10
2018-09-17T18:01:40.653Z,43.00
2018-09-17T18:04:09.412Z,43.20
2018-09-17T18:06:37.575Z,43.10
2018-09-17T18:09:07.692Z,43.10
2018-09-17T18:11:35.224Z,43.10
2018-09-17T18:14:02.693Z,43.10
2018-09-17T18:16:31.039Z,43.00
2018-09-17T18:18:59.227Z,43.00
2018-09-17T18:21:26.723Z,43.00
2018-09-17T18:23:54.241Z,42.90
2018-09-17T18:26:21.696Z,42.90
2018-09-17T18:28:49.229Z,43.60
2018-09-17T18:31:16.781Z,43.00
2018-09-17T18:33:44.238Z,42.90
2018-09-17T18:36:11.713Z,43.00
2018-09-17T18:38:39.215Z,42.90
2018-09-17T18:41:06.714Z,43.00
2018-09-17T18:43:34.133Z,43.00
2018-09-17T18:46:01.601Z,42.90
2018-09-17T18:48:29.120Z,42.90
2018-09-17T18:50:56.654Z,43.00
2018-09-17T18:53:24.081Z,42.80
2018-09-17T18:55:51.834Z,43.60
2018-09-17T18:58:19.329Z,42.90
2018-09-17T19:00:46.826Z,42.90
2018-09-17T19:03:14.569Z,43.00
2018-09-17T19:05:42.094Z,42.90
2018-09-17T19:08:09.556Z,42.90
2018-09-17T19:10:37.029Z,42.80
2018-09-17T19:13:04.492Z,42.90
2018-09-17T19:15:37.433Z,42.90
2018-09-17T19:18:10.412Z,42.80
2018-09-17T19:20:38.102Z,42.80
2018-09-17T19:23:10.821Z,42.90
2018-09-17T19:25:38.308Z,42.90
2018-09-17T19:28:11.274Z,42.80
2018-09-17T19:30:38.717Z,42.80
2018-09-17T19:33:06.198Z,42.80
2018-09-17T19:35:33.688Z,42.80
2018-09-17T19:38:06.707Z,42.90
2018-09-17T19:40:34.153Z,42.90
2018-09-17T19:43:01.738Z,43.00
2018-09-17T19:45:34.676Z,43.00
2018-09-17T19:48:02.243Z,43.00
2018-09-17T19:50:35.382Z,43.00
2018-09-17T19:53:02.745Z,43.00
2018-09-17T19:55:30.652Z,43.00
2018-09-17T19:58:03.509Z,43.00
2018-09-17T20:00:31.082Z,43.00
2018-09-17T20:02:58.453Z,42.90
2018-09-17T20:05:31.466Z,42.90
2018-09-17T20:07:58.926Z,43.00
2018-09-17T20:10:26.406Z,42.90
2018-09-17T20:12:53.871Z,43.00
2018-09-17T20:15:21.722Z,43.00
2018-09-17T20:17:49.213Z,43.00
2018-09-17T20:20:16.688Z,43.00
2018-09-17T20:22:44.148Z,43.00
2018-09-17T20:25:11.614Z,43.00
2018-09-17T20:27:39.068Z,43.00
2018-09-17T20:30:06.583Z,43.00
2018-09-17T20:32:34.061Z,43.00
2018-09-17T20:35:01.537Z,43.00
2018-09-17T20:37:28.996Z,43.00
2018-09-17T20:39:56.457Z,43.00
2018-09-17T20:42:24.133Z,43.00
2018-09-17T20:44:51.630Z,43.00
2018-09-17T20:47:19.089Z,43.00
2018-09-17T20:49:46.849Z,43.00
2018-09-17T20:52:14.297Z,43.00
2018-09-17T20:54:41.793Z,43.00
2018-09-17T20:57:09.260Z,43.00
2018-09-17T20:59:36.728Z,43.00
2018-09-17T21:02:04.222Z,43.00
2018-09-17T21:04:31.677Z,43.00
2018-09-17T21:06:59.336Z,43.00
2018-09-17T21:09:26.731Z,43.00
2018-09-17T21:11:54.144Z,43.00
2018-09-17T21:14:21.620Z,43.00
2018-09-17T21:16:49.114Z,42.90
2018-09-17T21:19:16.632Z,42.90
2018-09-17T21:21:44.058Z,42.80
2018-09-17T21:24:11.524Z,42.80
2018-09-17T21:26:38.972Z,42.80
2018-09-17T21:29:06.437Z,43.40
2018-09-17T21:31:33.896Z,42.70
2018-09-17T21:34:01.371Z,42.70
2018-09-17T21:36:28.852Z,42.80
2018-09-17T21:38:56.332Z,42.70
2018-09-17T21:41:23.789Z,42.60
2018-09-17T21:43:51.265Z,42.60
2018-09-17T21:46:18.717Z,42.60
2018-09-17T21:48:46.207Z,42.50
2018-09-17T21:51:13.697Z,42.50
2018-09-17T21:53:41.166Z,42.50
2018-09-17T21:56:08.609Z,42.50
2018-09-17T21:58:36.096Z,42.40
2018-09-17T22:01:04.374Z,42.40
2018-09-17T22:03:34.112Z,42.40
2018-09-17T22:06:01.557Z,42.40
2018-09-17T22:08:29.667Z,42.40
2018-09-17T22:10:57.117Z,42.40
2018-09-17T22:13:24.649Z,42.30
2018-09-17T22:15:52.104Z,42.30
2018-09-17T22:18:19.596Z,42.30
2018-09-17T22:20:47.077Z,42.20
2018-09-17T22:23:14.541Z,42.30
2018-09-17T22:25:42.028Z,42.20
2018-09-17T22:28:09.629Z,42.30
2018-09-17T22:30:37.109Z,42.20
2018-09-17T22:33:04.562Z,42.10
2018-09-17T22:35:32.030Z,42.10
2018-09-17T22:37:59.499Z,42.10
2018-09-17T22:40:26.957Z,42.10
2018-09-17T22:42:54.553Z,42.10
2018-09-17T22:45:22.028Z,42.10
2018-09-17T22:47:49.485Z,42.00
2018-09-17T22:50:16.929Z,42.00
2018-09-17T22:52:44.397Z,42.00
2018-09-17T22:55:11.850Z,42.00
2018-09-17T22:57:39.301Z,42.00
2018-09-17T23:00:06.830Z,42.00
2018-09-17T23:02:34.528Z,42.00
2018-09-17T23:05:01.995Z,41.90
2018-09-17T23:07:29.468Z,41.90
2018-09-17T23:09:57.086Z,41.90
2018-09-17T23:12:24.573Z,41.90
2018-09-17T23:14:52.078Z,41.90
2018-09-17T23:17:19.565Z,41.90
2018-09-17T23:19:47.073Z,41.90
2018-09-17T23:22:14.527Z,42.50
2018-09-17T23:24:41.972Z,41.80
2018-09-17T23:27:09.430Z,41.80
2018-09-17T23:29:36.885Z,41.80
2018-09-17T23:32:04.332Z,41.80
2018-09-17T23:34:31.793Z,41.80
2018-09-17T23:36:59.250Z,41.80
2018-09-17T23:39:26.714Z,41.80
2018-09-17T23:41:54.177Z,41.70
2018-09-17T23:44:21.628Z,41.70
2018-09-17T23:46:49.104Z,41.70
2018-09-17T23:49:16.563Z,41.70
2018-09-17T23:51:44.021Z,41.70
2018-09-17T23:54:11.500Z,41.70
2018-09-17T23:56:38.961Z,41.60
2018-09-17T23:59:06.435Z,41.60
